Time;durP1;ratioP1;P1;durP2;ratioP2;P2;SDS_P1;SDS_P2;PMS_P1;PMS_P2;Temp;Humidity;BMP_temperature;BMP_pressure;BME280_temperature;BME280_humidity;BME280_pressure;Samples;Min_cycle;Max_cycle;Signal;HPM_P1;HPM_P2
2023/05/26 00:01:50;;;;;;;;;;;;;;;;;;5070794;28;19974;-56
2023/05/26 00:04:17;;;;;;;;;;;;;;;;;;5041926;28;19916;-57
2023/05/26 00:06:43;;;;;;;;;;;;;;;;;;5065546;28;19920;-56
2023/05/26 00:09:09;;;;;;;;;;;;;;;;;;5068425;28;19952;-56
2023/05/26 00:11:35;;;;;;;;;;;;;;;;;;5064213;28;19923;-57
2023/05/26 00:14:01;;;;;;;;;;;;;;;;;;5072671;28;20314;-56
2023/05/26 00:16:27;;;;;;;;;;;;;;;;;;5069846;28;20137;-56
2023/05/26 00:18:53;;;;;;;;;;;;;;;;;;5063584;28;19912;-56
2023/05/26 00:21:19;;;;;;;;;;;;;;;;;;5069695;28;19912;-57
2023/05/26 00:23:44;;;;;;;;;;;;;;;;;;5069444;28;19960;-57
2023/05/26 00:26:10;;;;;;;;;;;;;;;;;;5057421;28;20624;-57
2023/05/26 00:28:36;;;;;;;;;;;;;;;;;;5069156;28;19921;-57
2023/05/26 00:31:02;;;;;;;;;;;;;;;;;;5070434;28;20402;-56
2023/05/26 00:33:28;;;;;;;;;;;;;;;;;;5068015;28;20062;-57
2023/05/26 00:35:54;;;;;;;;;;;;;;;;;;5069400;28;19950;-57
2023/05/26 00:38:20;;;;;;;;;;;;;;;;;;5071932;28;19981;-57
2023/05/26 00:40:46;;;;;;;;;;;;;;;;;;5066801;28;19956;-57
2023/05/26 00:43:12;;;;;;;;;;;;;;;;;;5071198;28;19920;-57
2023/05/26 00:45:38;;;;;;;;;;;;;;;;;;5065250;28;20359;-57
2023/05/26 00:48:04;;;;;;;;;;;;;;;;;;5053346;28;19921;-56
2023/05/26 00:50:30;;;;;;;;;;;;;;;;;;5063789;28;19923;-57
2023/05/26 00:52:56;;;;;;;;;;;;;;;;;;5057450;28;19913;-57
2023/05/26 00:55:23;;;;;;;;;;;;;;;;;;5073151;28;20300;-56
2023/05/26 00:57:50;;;;;;;;;;;;;;;;;;5068020;28;19953;-56
2023/05/26 01:00:16;;;;;;;;;;;;;;;;;;5070964;28;19916;-61
2023/05/26 01:02:42;;;;;;;;;;;;;;;;;;5077446;28;19916;-56
2023/05/26 01:05:08;;;;;;;;;;;;;;;;;;5062323;28;20371;-57
2023/05/26 01:07:35;;;;;;;;;;;;;;;;;;5057644;28;19960;-57
2023/05/26 01:10:01;;;;;;;;;;;;;;;;;;5070615;28;19917;-56
2023/05/26 01:12:27;;;;;;;;;;;;;;;;;;5070029;28;19970;-56
2023/05/26 01:14:54;;;;;;;;;;;;;;;;;;5070863;28;19920;-56
2023/05/26 01:17:20;;;;;;;;;;;;;;;;;;5061173;28;20276;-56
2023/05/26 01:19:46;;;;;;;;;;;;;;;;;;5053329;28;19922;-57
2023/05/26 01:22:12;;;;;;;;;;;;;;;;;;5059463;28;19917;-56
2023/05/26 01:24:37;;;;;;;;;;;;;;;;;;5038060;28;20364;-55
2023/05/26 01:27:04;;;;;;;;;;;;;;;;;;5069520;28;19958;-57
2023/05/26 01:29:30;;;;;;;;;;;;;;;;;;5067206;28;19919;-56
2023/05/26 01:31:56;;;;;;;;;;;;;;;;;;5063979;28;19912;-56
2023/05/26 01:34:22;;;;;;;;;;;;;;;;;;5061285;28;20340;-57
2023/05/26 01:36:48;;;;;;;;;;;;;;;;;;5056166;28;19928;-57
2023/05/26 01:39:13;;;;;;;;;;;;;;;;;;5057865;28;19955;-56
2023/05/26 01:41:39;;;;;;;;;;;;;;;;;;5068263;28;19913;-56
2023/05/26 01:44:08;;;;;;;;;;;;;;;;;;5051836;28;20175;-57
2023/05/26 01:46:34;;;;;;;;;;;;;;;;;;5058277;28;19963;-56
2023/05/26 01:49:00;;;;;;;;;;;;;;;;;;5061793;28;19955;-57
2023/05/26 01:51:26;;;;;;;;;;;;;;;;;;5073016;28;19912;-56
2023/05/26 01:53:52;;;;;;;;;;;;;;;;;;5066174;28;19919;-56
2023/05/26 01:56:18;;;;;;;;;;;;;;;;;;5052070;28;20348;-56
2023/05/26 01:58:43;;;;;;;;;;;;;;;;;;5052595;28;20001;-57
2023/05/26 02:01:09;;;;;;;;;;;;;;;;;;5051622;28;20047;-57
2023/05/26 02:03:35;;;;;;;;;;;;;;;;;;5062467;28;20440;-56
2023/05/26 02:06:01;;;;;;;;;;;;;;;;;;5071295;28;19908;-56
2023/05/26 02:08:27;;;;;;;;;;;;;;;;;;5066217;28;21155;-56
2023/05/26 02:10:53;;;;;;;;;;;;;;;;;;5054696;28;19947;-57
2023/05/26 02:13:19;;;;;;;;;;;;;;;;;;5064535;28;19960;-57
2023/05/26 02:15:45;;;;;;;;;;;;;;;;;;5068788;28;20486;-56
2023/05/26 02:18:11;;;;;;;;;;;;;;;;;;5060189;28;19949;-56
2023/05/26 02:20:37;;;;;;;;;;;;;;;;;;5076013;28;19919;-57
2023/05/26 02:23:03;;;;;;;;;;;;;;;;;;5056075;28;19952;-56
2023/05/26 02:25:29;;;;;;;;;;;;;;;;;;5067525;28;19935;-56
2023/05/26 02:27:55;;;;;;;;;;;;;;;;;;5056232;28;20007;-57
2023/05/26 02:30:21;;;;;;;;;;;;;;;;;;5072648;28;19959;-57
2023/05/26 02:32:47;;;;;;;;;;;;;;;;;;5056158;28;19959;-57
2023/05/26 02:35:13;;;;;;;;;;;;;;;;;;5049604;28;20402;-57
2023/05/26 02:37:41;;;;;;;;;;;;;;;;;;5071630;28;19919;-56
2023/05/26 02:40:09;;;;;;;;;;;;;;;;;;5072350;28;19966;-57
2023/05/26 02:42:35;;;;;;;;;;;;;;;;;;5059089;28;19995;-57
2023/05/26 02:45:01;;;;;;;;;;;;;;;;;;5075337;28;19912;-57
2023/05/26 02:47:26;;;;;;;;;;;;;;;;;;5057286;28;19959;-57
2023/05/26 02:49:52;;;;;;;;;;;;;;;;;;5059963;28;20273;-57
2023/05/26 02:52:18;;;;;;;;;;;;;;;;;;5063505;28;19913;-56
2023/05/26 02:54:44;;;;;;;;;;;;;;;;;;5063573;28;19971;-56
2023/05/26 02:57:10;;;;;;;;;;;;;;;;;;5060291;28;19913;-56
2023/05/26 02:59:36;;;;;;;;;;;;;;;;;;5069056;28;20007;-56
2023/05/26 03:02:02;;;;;;;;;;;;;;;;;;5069979;28;20253;-57
2023/05/26 03:04:28;;;;;;;;;;;;;;;;;;5064233;28;19920;-56
2023/05/26 03:06:54;;;;;;;;;;;;;;;;;;5061998;28;20014;-57
2023/05/26 03:09:20;;;;;;;;;;;;;;;;;;5063424;28;20004;-56
2023/05/26 03:11:46;;;;;;;;;;;;;;;;;;5055223;28;20003;-56
2023/05/26 03:14:11;;;;;;;;;;;;;;;;;;5068912;28;20283;-56
2023/05/26 03:16:37;;;;;;;;;;;;;;;;;;5073003;28;19912;-57
2023/05/26 03:19:03;;;;;;;;;;;;;;;;;;5074770;28;19956;-57
2023/05/26 03:21:29;;;;;;;;;;;;;;;;;;5058604;28;20003;-57
2023/05/26 03:23:55;;;;;;;;;;;;;;;;;;5069658;28;19912;-57
2023/05/26 03:26:22;;;;;;;;;;;;;;;;;;5055124;28;19955;-56
2023/05/26 03:28:48;;;;;;;;;;;;;;;;;;5071405;28;20360;-56
2023/05/26 03:31:14;;;;;;;;;;;;;;;;;;5061462;28;19999;-57
2023/05/26 03:33:39;;;;;;;;;;;;;;;;;;5073897;28;20370;-56
2023/05/26 03:36:06;;;;;;;;;;;;;;;;;;5070155;28;19956;-57
2023/05/26 03:38:32;;;;;;;;;;;;;;;;;;5053978;28;19916;-57
2023/05/26 03:40:58;;;;;;;;;;;;;;;;;;5054295;28;19916;-57
2023/05/26 03:43:24;;;;;;;;;;;;;;;;;;5054238;28;20019;-57
2023/05/26 03:45:50;;;;;;;;;;;;;;;;;;5062456;28;19936;-56
2023/05/26 03:48:16;;;;;;;;;;;;;;;;;;5053893;28;20347;-57
2023/05/26 03:50:43;;;;;;;;;;;;;;;;;;5056424;28;19912;-56
2023/05/26 03:53:09;;;;;;;;;;;;;;;;;;5059358;28;19967;-57
2023/05/26 03:55:36;;;;;;;;;;;;;;;;;;5054128;28;19952;-56
2023/05/26 03:58:02;;;;;;;;;;;;;;;;;;5071137;28;20400;-57
2023/05/26 04:00:30;;;;;;;;;;;;;;;;;;5053398;28;19912;-57
2023/05/26 04:02:56;;;;;;;;;;;;;;;;;;5065157;28;19970;-57
2023/05/26 04:05:22;;;;;;;;;;;;;;;;;;5063700;28;19916;-57
2023/05/26 04:07:49;;;;;;;;;;;;;;;;;;5059466;28;19944;-57
2023/05/26 04:10:15;;;;;;;;;;;;;;;;;;5067372;28;20325;-57
2023/05/26 04:12:40;;;;;;;;;;;;;;;;;;5066380;28;19999;-57
2023/05/26 04:15:08;;;;;;;;;;;;;;;;;;5061624;28;19956;-57
2023/05/26 04:17:34;;;;;;;;;;;;;;;;;;5061778;28;19913;-57
2023/05/26 04:20:00;;;;;;;;;;;;;;;;;;5064525;28;20372;-56
2023/05/26 04:22:26;;;;;;;;;;;;;;;;;;5066062;28;19951;-56
2023/05/26 04:24:52;;;;;;;;;;;;;;;;;;5067991;28;19951;-57
2023/05/26 04:27:18;;;;;;;;;;;;;;;;;;5070492;28;20394;-57
2023/05/26 04:29:43;;;;;;;;;;;;;;;;;;5071296;28;19908;-56
2023/05/26 04:32:11;;;;;;;;;;;;;;;;;;5041161;28;20380;-57
2023/05/26 04:34:37;;;;;;;;;;;;;;;;;;5052988;28;20068;-57
2023/05/26 04:37:04;;;;;;;;;;;;;;;;;;5072130;28;20427;-57
2023/05/26 04:39:30;;;;;;;;;;;;;;;;;;5070144;28;19973;-56
2023/05/26 04:41:57;;;;;;;;;;;;;;;;;;5064887;28;19989;-57
2023/05/26 04:44:24;;;;;;;;;;;;;;;;;;5064004;28;19913;-56
2023/05/26 04:46:50;;;;;;;;;;;;;;;;;;5053476;28;19917;-57
2023/05/26 04:49:16;;;;;;;;;;;;;;;;;;5069571;28;19913;-56
2023/05/26 04:51:42;;;;;;;;;;;;;;;;;;5070129;28;19948;-57
2023/05/26 04:54:08;;;;;;;;;;;;;;;;;;5040901;28;20527;-56
2023/05/26 04:56:34;;;;;;;;;;;;;;;;;;5059891;28;19919;-57
2023/05/26 04:59:00;;;;;;;;;;;;;;;;;;5065763;28;20029;-57
2023/05/26 05:01:26;;;;;;;;;;;;;;;;;;5063961;28;20051;-58
2023/05/26 05:03:52;;;;;;;;;;;;;;;;;;5063916;28;20440;-57
2023/05/26 05:06:18;;;;;;;;;;;;;;;;;;5062829;28;19913;-58
2023/05/26 05:08:44;;;;;;;;;;;;;;;;;;5066435;28;20011;-56
2023/05/26 05:11:11;;;;;;;;;;;;;;;;;;5061962;28;19967;-57
2023/05/26 05:13:37;;;;;;;;;;;;;;;;;;5067905;28;19917;-57
2023/05/26 05:16:03;;;;;;;;;;;;;;;;;;5062203;28;19956;-57
2023/05/26 05:18:29;;;;;;;;;;;;;;;;;;5064030;28;20049;-56
2023/05/26 05:20:56;;;;;;;;;;;;;;;;;;5077092;28;19913;-56
2023/05/26 05:23:22;;;;;;;;;;;;;;;;;;5052366;28;19924;-56
2023/05/26 05:25:48;;;;;;;;;;;;;;;;;;5060002;28;20288;-57
2023/05/26 05:28:14;;;;;;;;;;;;;;;;;;5066689;28;19955;-57
2023/05/26 05:30:39;;;;;;;;;;;;;;;;;;5069297;28;19999;-57
2023/05/26 05:33:05;;;;;;;;;;;;;;;;;;5066963;28;19921;-56
2023/05/26 05:35:31;;;;;;;;;;;;;;;;;;5048741;28;20395;-57
2023/05/26 05:37:57;;;;;;;;;;;;;;;;;;5058830;28;19958;-57
2023/05/26 05:40:23;;;;;;;;;;;;;;;;;;5068522;28;19958;-57
2023/05/26 05:42:49;;;;;;;;;;;;;;;;;;5069093;28;20375;-56
2023/05/26 05:45:15;;;;;;;;;;;;;;;;;;5069777;28;19919;-57
2023/05/26 05:47:41;;;;;;;;;;;;;;;;;;5071215;28;20332;-57
2023/05/26 05:50:07;;;;;;;;;;;;;;;;;;5061503;28;20003;-56
2023/05/26 05:52:33;;;;;;;;;;;;;;;;;;5056412;28;19939;-57
2023/05/26 05:54:58;;;;;;;;;;;;;;;;;;5068264;28;19977;-57
2023/05/26 05:57:24;;;;;;;;;;;;;;;;;;5061682;28;19917;-57
2023/05/26 05:59:50;;;;;;;;;;;;;;;;;;5071929;28;19920;-57
2023/05/26 06:02:16;;;;;;;;;;;;;;;;;;5072483;28;20406;-57
2023/05/26 06:04:42;;;;;;;;;;;;;;;;;;5069988;28;20364;-57
2023/05/26 06:07:08;;;;;;;;;;;;;;;;;;5067001;28;20411;-57
2023/05/26 06:09:34;;;;;;;;;;;;;;;;;;5068818;28;19923;-57
2023/05/26 06:12:01;;;;;;;;;;;;;;;;;;5070418;28;19963;-57
2023/05/26 06:14:27;;;;;;;;;;;;;;;;;;5073838;28;19970;-57
2023/05/26 06:16:53;;;;;;;;;;;;;;;;;;5073526;28;19967;-57
2023/05/26 06:19:19;;;;;;;;;;;;;;;;;;5069995;28;19981;-57
2023/05/26 06:21:45;;;;;;;;;;;;;;;;;;5065731;28;19913;-57
2023/05/26 06:24:11;;;;;;;;;;;;;;;;;;5071995;28;19913;-57
2023/05/26 06:26:37;;;;;;;;;;;;;;;;;;5065609;28;20447;-57
2023/05/26 06:29:03;;;;;;;;;;;;;;;;;;5059511;28;19917;-57
2023/05/26 06:31:29;;;;;;;;;;;;;;;;;;5061257;28;19923;-57
2023/05/26 06:33:55;;;;;;;;;;;;;;;;;;5060840;28;20291;-57
2023/05/26 06:36:21;;;;;;;;;;;;;;;;;;5067579;28;19918;-57
2023/05/26 06:38:47;;;;;;;;;;;;;;;;;;5061505;28;19955;-57
2023/05/26 06:41:13;;;;;;;;;;;;;;;;;;5071384;28;19962;-57
2023/05/26 06:43:39;;;;;;;;;;;;;;;;;;5060499;28;19913;-57
2023/05/26 06:46:05;;;;;;;;;;;;;;;;;;5066368;28;19920;-57
2023/05/26 06:48:30;;;;;;;;;;;;;;;;;;5065982;28;19964;-58
2023/05/26 06:50:56;;;;;;;;;;;;;;;;;;5054682;28;19959;-57
2023/05/26 06:53:22;;;;;;;;;;;;;;;;;;5068558;28;19966;-57
2023/05/26 06:55:48;;;;;;;;;;;;;;;;;;5056611;28;20373;-57
2023/05/26 06:58:14;;;;;;;;;;;;;;;;;;5074672;28;19913;-58
2023/05/26 07:00:40;;;;;;;;;;;;;;;;;;5077556;28;20340;-57
2023/05/26 07:03:06;;;;;;;;;;;;;;;;;;5072671;28;19944;-57
2023/05/26 07:05:32;;;;;;;;;;;;;;;;;;5082423;28;19995;-58
2023/05/26 07:07:58;;;;;;;;;;;;;;;;;;5069248;28;19920;-58
2023/05/26 07:10:24;;;;;;;;;;;;;;;;;;5070449;28;20425;-58
2023/05/26 07:12:50;;;;;;;;;;;;;;;;;;5065114;28;19913;-57
2023/05/26 07:15:16;;;;;;;;;;;;;;;;;;5057684;28;20352;-57
2023/05/26 07:17:42;;;;;;;;;;;;;;;;;;5066213;28;20027;-57
2023/05/26 07:20:08;;;;;;;;;;;;;;;;;;5055951;28;19912;-58
2023/05/26 07:22:34;;;;;;;;;;;;;;;;;;5060641;28;19950;-58
2023/05/26 07:25:00;;;;;;;;;;;;;;;;;;5068018;28;20615;-58
2023/05/26 07:27:26;;;;;;;;;;;;;;;;;;5070619;28;19954;-57
2023/05/26 07:29:52;;;;;;;;;;;;;;;;;;5062941;28;19913;-58
2023/05/26 07:32:17;;;;;;;;;;;;;;;;;;5066620;28;19912;-58
2023/05/26 07:34:43;;;;;;;;;;;;;;;;;;5074098;28;20433;-57
2023/05/26 07:37:09;;;;;;;;;;;;;;;;;;5063852;28;20003;-57
2023/05/26 07:39:35;;;;;;;;;;;;;;;;;;5054277;28;19917;-58
2023/05/26 07:42:01;;;;;;;;;;;;;;;;;;5053648;28;19951;-58
2023/05/26 07:44:27;;;;;;;;;;;;;;;;;;5060052;28;20433;-57
2023/05/26 07:46:53;;;;;;;;;;;;;;;;;;5054781;28;19978;-57
2023/05/26 07:49:19;;;;;;;;;;;;;;;;;;5066112;28;20039;-58
2023/05/26 07:51:45;;;;;;;;;;;;;;;;;;5072746;28;20002;-57
2023/05/26 07:54:11;;;;;;;;;;;;;;;;;;5087862;28;19916;-57
2023/05/26 07:56:37;;;;;;;;;;;;;;;;;;5078606;28;20008;-58
2023/05/26 07:59:03;;;;;;;;;;;;;;;;;;5067870;28;19955;-58
2023/05/26 08:01:29;;;;;;;;;;;;;;;;;;5065507;28;20470;-58
2023/05/26 08:03:55;;;;;;;;;;;;;;;;;;5058007;28;19912;-58
2023/05/26 08:06:21;;;;;;;;;;;;;;;;;;5066442;28;20019;-58
2023/05/26 08:08:47;;;;;;;;;;;;;;;;;;5065672;28;20384;-59
2023/05/26 08:11:13;;;;;;;;;;;;;;;;;;5068145;28;20014;-58
2023/05/26 08:13:39;;;;;;;;;;;;;;;;;;5063466;28;19913;-57
2023/05/26 08:16:05;;;;;;;;;;;;;;;;;;5062102;28;19925;-57
2023/05/26 08:18:31;;;;;;;;;;;;;;;;;;5059893;28;20725;-58
2023/05/26 08:20:57;;;;;;;;;;;;;;;;;;5059231;28;19913;-58
2023/05/26 08:23:23;;;;;;;;;;;;;;;;;;5057524;28;19923;-57
2023/05/26 08:25:49;;;;;;;;;;;;;;;;;;5065767;28;20031;-57
2023/05/26 08:28:15;;;;;;;;;;;;;;;;;;5063436;28;20425;-62
2023/05/26 08:30:41;;;;;;;;;;;;;;;;;;5072505;28;19908;-63
2023/05/26 08:33:07;;;;;;;;;;;;;;;;;;5072820;28;19919;-62
2023/05/26 08:35:33;;;;;;;;;;;;;;;;;;5059317;28;19968;-62
2023/05/26 08:37:59;;;;;;;;;;;;;;;;;;5072849;28;19961;-62
2023/05/26 08:40:25;;;;;;;;;;;;;;;;;;5069598;28;19913;-61
2023/05/26 08:42:51;;;;;;;;;;;;;;;;;;5063858;28;20002;-62
2023/05/26 08:45:17;;;;;;;;;;;;;;;;;;5052803;28;19909;-63
2023/05/26 08:47:43;;;;;;;;;;;;;;;;;;5068487;28;20087;-63
2023/05/26 08:50:09;;;;;;;;;;;;;;;;;;5062298;28;19955;-63
2023/05/26 08:52:35;;;;;;;;;;;;;;;;;;5071064;28;19917;-63
2023/05/26 08:55:01;;;;;;;;;;;;;;;;;;5071208;28;19951;-62
2023/05/26 08:57:27;;;;;;;;;;;;;;;;;;5066603;28;19926;-62
2023/05/26 08:59:53;;;;;;;;;;;;;;;;;;5068855;28;19916;-63
2023/05/26 09:02:19;;;;;;;;;;;;;;;;;;5057510;28;20288;-62
2023/05/26 09:04:46;;;;;;;;;;;;;;;;;;5068163;28;19947;-62
2023/05/26 09:07:12;;;;;;;;;;;;;;;;;;5072008;28;20467;-62
2023/05/26 09:09:38;;;;;;;;;;;;;;;;;;5073622;28;19951;-61
2023/05/26 09:12:04;;;;;;;;;;;;;;;;;;5077865;28;19912;-61
2023/05/26 09:14:30;;;;;;;;;;;;;;;;;;5071959;28;19920;-62
2023/05/26 09:16:56;;;;;;;;;;;;;;;;;;5071945;28;19982;-63
2023/05/26 09:19:22;;;;;;;;;;;;;;;;;;5070246;28;19922;-63
2023/05/26 09:21:48;;;;;;;;;;;;;;;;;;5064359;28;19912;-62
2023/05/26 09:24:14;;;;;;;;;;;;;;;;;;5068114;28;20024;-62
2023/05/26 09:26:39;;;;;;;;;;;;;;;;;;5072212;28;19908;-61
2023/05/26 09:29:05;;;;;;;;;;;;;;;;;;5072677;28;19944;-64
2023/05/26 09:31:31;;;;;;;;;;;;;;;;;;5078480;28;19908;-62
2023/05/26 09:33:57;;;;;;;;;;;;;;;;;;5078512;28;19908;-62
2023/05/26 09:36:23;;;;;;;;;;;;;;;;;;5076989;28;19954;-62
2023/05/26 09:38:49;;;;;;;;;;;;;;;;;;5059591;28;19913;-63
2023/05/26 09:41:15;;;;;;;;;;;;;;;;;;5058407;28;19916;-63
2023/05/26 09:43:41;;;;;;;;;;;;;;;;;;5074623;28;20677;-62
2023/05/26 09:46:08;;;;;;;;;;;;;;;;;;5074027;28;19952;-62
2023/05/26 09:48:34;;;;;;;;;;;;;;;;;;5058305;28;19970;-63
2023/05/26 09:51:00;;;;;;;;;;;;;;;;;;5072913;28;20009;-61
2023/05/26 09:53:26;;;;;;;;;;;;;;;;;;5080172;28;19951;-62
2023/05/26 09:55:52;;;;;;;;;;;;;;;;;;5099089;28;20008;-62
2023/05/26 09:58:18;;;;;;;;;;;;;;;;;;5073346;28;19977;-62
2023/05/26 10:00:44;;;;;;;;;;;;;;;;;;5078778;28;20406;-62
2023/05/26 10:03:10;;;;;;;;;;;;;;;;;;5078257;28;20390;-62
2023/05/26 10:05:36;;;;;;;;;;;;;;;;;;5065637;28;19919;-61
2023/05/26 10:08:02;;;;;;;;;;;;;;;;;;5086465;28;19916;-62
2023/05/26 10:10:28;;;;;;;;;;;;;;;;;;5058301;28;19944;-62
2023/05/26 10:12:54;;;;;;;;;;;;;;;;;;5083842;28;20391;-62
2023/05/26 10:15:20;;;;;;;;;;;;;;;;;;5078427;28;19965;-62
2023/05/26 10:17:45;;;;;;;;;;;;;;;;;;5076423;28;19948;-62
2023/05/26 10:20:11;;;;;;;;;;;;;;;;;;5076702;28;19915;-62
2023/05/26 10:22:37;;;;;;;;;;;;;;;;;;5067981;28;20322;-62
2023/05/26 10:25:03;;;;;;;;;;;;;;;;;;5068269;28;19916;-61
2023/05/26 10:27:29;;;;;;;;;;;;;;;;;;5078109;28;20083;-61
2023/05/26 10:29:55;;;;;;;;;;;;;;;;;;5075796;28;20130;-62
2023/05/26 10:32:21;;;;;;;;;;;;;;;;;;5069023;28;19916;-62
2023/05/26 10:34:47;;;;;;;;;;;;;;;;;;5071975;28;19909;-61
2023/05/26 10:37:13;;;;;;;;;;;;;;;;;;5074875;28;20011;-62
2023/05/26 10:39:40;;;;;;;;;;;;;;;;;;5077756;28;20368;-61
2023/05/26 10:42:06;;;;;;;;;;;;;;;;;;5059861;28;19908;-62
2023/05/26 10:44:32;;;;;;;;;;;;;;;;;;5068497;28;19981;-63
2023/05/26 10:46:58;;;;;;;;;;;;;;;;;;5070491;28;19915;-61
2023/05/26 10:49:24;;;;;;;;;;;;;;;;;;5067771;28;19921;-63
2023/05/26 10:51:50;;;;;;;;;;;;;;;;;;5080210;28;20398;-63
2023/05/26 10:54:18;;;;;;;;;;;;;;;;;;5080877;28;19916;-63
2023/05/26 10:56:44;;;;;;;;;;;;;;;;;;5077883;28;19934;-64
2023/05/26 10:59:10;;;;;;;;;;;;;;;;;;5057437;28;19913;-63
2023/05/26 11:01:36;;;;;;;;;;;;;;;;;;5064180;28;19944;-62
2023/05/26 11:04:02;;;;;;;;;;;;;;;;;;5067123;28;19923;-62
2023/05/26 11:06:28;;;;;;;;;;;;;;;;;;5064577;28;19970;-62
2023/05/26 11:08:53;;;;;;;;;;;;;;;;;;5063875;28;19983;-62
2023/05/26 11:11:21;;;;;;;;;;;;;;;;;;5057827;28;19999;-63
2023/05/26 11:13:47;;;;;;;;;;;;;;;;;;5069608;28;19919;-61
2023/05/26 11:16:13;;;;;;;;;;;;;;;;;;5065801;28;19955;-62
2023/05/26 11:18:39;;;;;;;;;;;;;;;;;;5074241;28;19946;-62
2023/05/26 11:21:05;;;;;;;;;;;;;;;;;;5070077;28;20012;-63
2023/05/26 11:23:32;;;;;;;;;;;;;;;;;;5068258;28;20010;-62
2023/05/26 11:25:58;;;;;;;;;;;;;;;;;;5069298;28;19912;-62
2023/05/26 11:28:24;;;;;;;;;;;;;;;;;;5071415;28;19965;-63
2023/05/26 11:30:49;;;;;;;;;;;;;;;;;;5063470;28;19917;-62
2023/05/26 11:33:15;;;;;;;;;;;;;;;;;;5073549;28;19912;-62
2023/05/26 11:35:42;;;;;;;;;;;;;;;;;;5060169;28;19956;-62
2023/05/26 11:38:08;;;;;;;;;;;;;;;;;;5065821;28;19963;-62
2023/05/26 11:40:34;;;;;;;;;;;;;;;;;;5061615;28;19952;-62
2023/05/26 11:43:00;;;;;;;;;;;;;;;;;;5066266;28;19913;-63
2023/05/26 11:45:26;;;;;;;;;;;;;;;;;;5060030;28;19919;-62
2023/05/26 11:47:52;;;;;;;;;;;;;;;;;;5066848;28;19966;-62
2023/05/26 11:50:18;;;;;;;;;;;;;;;;;;5055546;28;19986;-62
2023/05/26 11:52:44;;;;;;;;;;;;;;;;;;5064131;28;19977;-62
2023/05/26 11:55:09;;;;;;;;;;;;;;;;;;5062082;28;19913;-62
2023/05/26 11:57:36;;;;;;;;;;;;;;;;;;5061058;28;19917;-62
2023/05/26 12:00:09;;;;;;;;;;;;;;;;;;5059610;28;20431;-62
2023/05/26 12:02:34;;;;;;;;;;;;;;;;;;5055998;28;19916;-62
2023/05/26 12:05:00;;;;;;;;;;;;;;;;;;5056148;28;20434;-62
2023/05/26 12:07:27;;;;;;;;;;;;;;;;;;5061406;28;19925;-62
2023/05/26 12:09:52;;;;;;;;;;;;;;;;;;5062054;28;20003;-63
2023/05/26 12:12:18;;;;;;;;;;;;;;;;;;5065666;28;20008;-59
2023/05/26 12:14:45;;;;;;;;;;;;;;;;;;5072677;28;19925;-60
2023/05/26 12:17:11;;;;;;;;;;;;;;;;;;5070340;28;19916;-60
2023/05/26 12:19:37;;;;;;;;;;;;;;;;;;5068496;28;20001;-60
2023/05/26 12:22:03;;;;;;;;;;;;;;;;;;5072317;28;19912;-60
2023/05/26 12:24:28;;;;;;;;;;;;;;;;;;5066569;28;20008;-60
2023/05/26 12:26:54;;;;;;;;;;;;;;;;;;5072694;28;19909;-61
2023/05/26 12:29:20;;;;;;;;;;;;;;;;;;5072864;28;19955;-60
2023/05/26 12:31:46;;;;;;;;;;;;;;;;;;5072697;28;20003;-61
2023/05/26 12:34:12;;;;;;;;;;;;;;;;;;5059512;28;19950;-60
2023/05/26 12:36:38;;;;;;;;;;;;;;;;;;5071004;28;20700;-61
2023/05/26 12:39:04;;;;;;;;;;;;;;;;;;5062167;28;19921;-60
2023/05/26 12:41:30;;;;;;;;;;;;;;;;;;5067844;28;19919;-60
2023/05/26 12:43:56;;;;;;;;;;;;;;;;;;5059265;28;19964;-60
2023/05/26 12:46:23;;;;;;;;;;;;;;;;;;5062606;28;19947;-60
2023/05/26 12:48:48;;;;;;;;;;;;;;;;;;5060673;28;20006;-60
2023/05/26 12:51:16;;;;;;;;;;;;;;;;;;5070766;28;20003;-60
2023/05/26 12:53:42;;;;;;;;;;;;;;;;;;5068831;28;19919;-60
2023/05/26 12:56:08;;;;;;;;;;;;;;;;;;5056503;28;20004;-60
2023/05/26 12:58:34;;;;;;;;;;;;;;;;;;5059973;28;19913;-61
2023/05/26 13:01:00;;;;;;;;;;;;;;;;;;5055483;28;19912;-61
2023/05/26 13:03:26;;;;;;;;;;;;;;;;;;5051993;28;20356;-60
2023/05/26 13:05:52;;;;;;;;;;;;;;;;;;5067212;28;19944;-60
2023/05/26 13:08:18;;;;;;;;;;;;;;;;;;5062879;28;20397;-60
2023/05/26 13:10:47;;;;;;;;;;;;;;;;;;5064960;28;20453;-61
2023/05/26 13:13:13;;;;;;;;;;;;;;;;;;5064559;28;19959;-60
2023/05/26 13:15:39;;;;;;;;;;;;;;;;;;5064813;28;20368;-61
2023/05/26 13:18:05;;;;;;;;;;;;;;;;;;5061128;28;19912;-60
2023/05/26 13:20:31;;;;;;;;;;;;;;;;;;5062389;28;20326;-61
2023/05/26 13:22:57;;;;;;;;;;;;;;;;;;5062531;28;19928;-61
2023/05/26 13:25:23;;;;;;;;;;;;;;;;;;5055268;28;19963;-61
2023/05/26 13:27:49;;;;;;;;;;;;;;;;;;5059926;28;19970;-61
2023/05/26 13:30:15;;;;;;;;;;;;;;;;;;5070364;28;19974;-60
2023/05/26 13:32:41;;;;;;;;;;;;;;;;;;5064750;28;20368;-60
2023/05/26 13:35:07;;;;;;;;;;;;;;;;;;5057309;28;20034;-61
2023/05/26 13:37:32;;;;;;;;;;;;;;;;;;5061476;28;19913;-60
2023/05/26 13:39:58;;;;;;;;;;;;;;;;;;5058350;28;19916;-61
2023/05/26 13:42:24;;;;;;;;;;;;;;;;;;5064023;28;19913;-60
2023/05/26 13:44:50;;;;;;;;;;;;;;;;;;5059671;28;19920;-60
2023/05/26 13:47:16;;;;;;;;;;;;;;;;;;5061136;28;19917;-59
2023/05/26 13:49:42;;;;;;;;;;;;;;;;;;5051852;28;19959;-60
2023/05/26 13:52:08;;;;;;;;;;;;;;;;;;5055135;28;20272;-60
2023/05/26 13:54:34;;;;;;;;;;;;;;;;;;5065163;28;19969;-60
2023/05/26 13:57:00;;;;;;;;;;;;;;;;;;5059727;28;19948;-60
2023/05/26 13:59:26;;;;;;;;;;;;;;;;;;5064614;28;19920;-60
2023/05/26 14:01:52;;;;;;;;;;;;;;;;;;5051943;28;19959;-61
2023/05/26 14:04:18;;;;;;;;;;;;;;;;;;5061005;28;20030;-61
2023/05/26 14:06:44;;;;;;;;;;;;;;;;;;5063649;28;20383;-60
2023/05/26 14:09:10;;;;;;;;;;;;;;;;;;5057559;28;19927;-61
2023/05/26 14:11:36;;;;;;;;;;;;;;;;;;5062283;28;20019;-60
2023/05/26 14:14:02;;;;;;;;;;;;;;;;;;5076556;28;19916;-60
2023/05/26 14:16:28;;;;;;;;;;;;;;;;;;5061308;28;19948;-60
2023/05/26 14:18:54;;;;;;;;;;;;;;;;;;5071228;28;19916;-60
2023/05/26 14:21:20;;;;;;;;;;;;;;;;;;5073258;28;20013;-61
2023/05/26 14:23:46;;;;;;;;;;;;;;;;;;5068124;28;19920;-61
2023/05/26 14:26:12;;;;;;;;;;;;;;;;;;5062616;28;19947;-60
2023/05/26 14:28:38;;;;;;;;;;;;;;;;;;5065570;28;19920;-60
2023/05/26 14:31:04;;;;;;;;;;;;;;;;;;5056916;28;20388;-59
2023/05/26 14:33:30;;;;;;;;;;;;;;;;;;5056977;28;20024;-60
2023/05/26 14:35:56;;;;;;;;;;;;;;;;;;5074092;28;19951;-60
2023/05/26 14:38:22;;;;;;;;;;;;;;;;;;5068191;28;19948;-61
2023/05/26 14:40:48;;;;;;;;;;;;;;;;;;5062579;28;19918;-60
2023/05/26 14:43:14;;;;;;;;;;;;;;;;;;5063847;28;20406;-60
2023/05/26 14:45:40;;;;;;;;;;;;;;;;;;5069287;28;19954;-60
2023/05/26 14:48:05;;;;;;;;;;;;;;;;;;5068253;28;19923;-60
2023/05/26 14:50:32;;;;;;;;;;;;;;;;;;5068838;28;19960;-60
2023/05/26 14:52:58;;;;;;;;;;;;;;;;;;5074677;28;20364;-61
2023/05/26 14:55:24;;;;;;;;;;;;;;;;;;5072749;28;19962;-61
2023/05/26 14:57:50;;;;;;;;;;;;;;;;;;5066012;28;19913;-60
2023/05/26 15:00:16;;;;;;;;;;;;;;;;;;5056412;28;20003;-60
2023/05/26 15:02:42;;;;;;;;;;;;;;;;;;5059456;28;20009;-60
2023/05/26 15:05:08;;;;;;;;;;;;;;;;;;5068909;28;19913;-59
2023/05/26 15:07:34;;;;;;;;;;;;;;;;;;5069766;28;19963;-60
2023/05/26 15:10:00;;;;;;;;;;;;;;;;;;5058200;28;20387;-59
2023/05/26 15:12:26;;;;;;;;;;;;;;;;;;5058290;28;20050;-59
2023/05/26 15:14:51;;;;;;;;;;;;;;;;;;5064206;28;19924;-60
2023/05/26 15:17:17;;;;;;;;;;;;;;;;;;5066002;28;19917;-60
2023/05/26 15:19:45;;;;;;;;;;;;;;;;;;5054532;28;21550;-60
2023/05/26 15:22:11;;;;;;;;;;;;;;;;;;5062824;28;19944;-63
2023/05/26 15:24:37;;;;;;;;;;;;;;;;;;5066813;28;19995;-62
2023/05/26 15:27:03;;;;;;;;;;;;;;;;;;5054703;28;19917;-60
2023/05/26 15:29:29;;;;;;;;;;;;;;;;;;5061680;28;20374;-59
2023/05/26 15:31:55;;;;;;;;;;;;;;;;;;5051338;28;19955;-62
2023/05/26 15:34:21;;;;;;;;;;;;;;;;;;5060459;28;20014;-62
2023/05/26 15:36:49;;;;;;;;;;;;;;;;;;5062682;28;20312;-63
2023/05/26 15:39:15;;;;;;;;;;;;;;;;;;5058712;28;20407;-60
2023/05/26 15:41:41;;;;;;;;;;;;;;;;;;5064499;28;19927;-59
2023/05/26 15:44:07;;;;;;;;;;;;;;;;;;5057803;28;19912;-63
2023/05/26 15:46:32;;;;;;;;;;;;;;;;;;5063113;28;20384;-62
2023/05/26 15:48:58;;;;;;;;;;;;;;;;;;5056627;28;19920;-62
2023/05/26 15:51:24;;;;;;;;;;;;;;;;;;5062389;28;20005;-62
2023/05/26 15:53:50;;;;;;;;;;;;;;;;;;5055158;28;20366;-63
2023/05/26 15:56:16;;;;;;;;;;;;;;;;;;5057198;28;20333;-60
2023/05/26 15:58:42;;;;;;;;;;;;;;;;;;5060393;28;19916;-63
2023/05/26 16:01:08;;;;;;;;;;;;;;;;;;5055298;28;20047;-61
2023/05/26 16:03:34;;;;;;;;;;;;;;;;;;5064257;28;19920;-62
2023/05/26 16:06:00;;;;;;;;;;;;;;;;;;5071276;28;19916;-63
2023/05/26 16:08:26;;;;;;;;;;;;;;;;;;5059309;28;19962;-62
2023/05/26 16:10:52;;;;;;;;;;;;;;;;;;5072753;28;20364;-62
2023/05/26 16:13:17;;;;;;;;;;;;;;;;;;5056458;28;19916;-62
2023/05/26 16:15:43;;;;;;;;;;;;;;;;;;5057806;28;20133;-62
2023/05/26 16:18:10;;;;;;;;;;;;;;;;;;5058424;28;19924;-62
2023/05/26 16:20:36;;;;;;;;;;;;;;;;;;5058555;28;20372;-62
2023/05/26 16:23:02;;;;;;;;;;;;;;;;;;5060829;28;19952;-61
2023/05/26 16:25:27;;;;;;;;;;;;;;;;;;5052707;28;19973;-62
2023/05/26 16:27:53;;;;;;;;;;;;;;;;;;5058649;28;20391;-61
2023/05/26 16:30:19;;;;;;;;;;;;;;;;;;5063946;28;20019;-61
2023/05/26 16:32:45;;;;;;;;;;;;;;;;;;5059183;28;19917;-62
2023/05/26 16:35:11;;;;;;;;;;;;;;;;;;5064569;28;20340;-62
2023/05/26 16:37:37;;;;;;;;;;;;;;;;;;5058434;28;19974;-63